Iron Mtn, Michigan
Current Conditions -  °F | °C
As of 9:41 PM on Monday 26 Jan 2015 (Local Time) from KIMT Reporting Station
Light Snow Light Snow  
Wind Chill: 12°   Ceiling: 2800
Heat Index: 20°   Visibility: 2mi
Dew Point: 17°   Wind: 6mph
Humidity: 89%   Direction: 110°ESE
Pressure: 29.92"   Gusts: NA
Location:  45.9025°N, 88.0366°W
Report Text: KIMT 270341Z AUTO 11005KT 2SM -SN BR OVC028 M07/M08 A2992 RMK AO2 P0000 T10671083
Loading
Personal Weather Stations






























Interactive Weather Map New forecast layout! Learn more

10-Day Weather Forecast

Advertisements
Track Severe Weather on mobile